sensor_id;sensor_type;location;lat;lon;timestamp;temperature;humidity
17066;DHT22;23120;52.336;21.182;2023-08-06T00:00:57;20.00;99.90
17066;DHT22;23120;52.336;21.182;2023-08-06T00:03:26;20.00;99.90
17066;DHT22;23120;52.336;21.182;2023-08-06T00:05:52;20.00;99.90
17066;DHT22;23120;52.336;21.182;2023-08-06T00:08:19;20.00;99.90
17066;DHT22;23120;52.336;21.182;2023-08-06T00:10:47;20.00;99.90
17066;DHT22;23120;52.336;21.182;2023-08-06T00:13:15;20.00;99.90
17066;DHT22;23120;52.336;21.182;2023-08-06T00:15:41;20.00;99.90
17066;DHT22;23120;52.336;21.182;2023-08-06T00:18:08;20.00;99.90
17066;DHT22;23120;52.336;21.182;2023-08-06T00:20:38;19.90;99.90
17066;DHT22;23120;52.336;21.182;2023-08-06T00:23:05;20.00;99.90
17066;DHT22;23120;52.336;21.182;2023-08-06T00:25:32;20.00;99.90
17066;DHT22;23120;52.336;21.182;2023-08-06T00:27:59;19.90;99.90
17066;DHT22;23120;52.336;21.182;2023-08-06T00:30:26;20.00;99.90
17066;DHT22;23120;52.336;21.182;2023-08-06T00:32:52;19.90;99.90
17066;DHT22;23120;52.336;21.182;2023-08-06T00:35:19;20.00;99.90
17066;DHT22;23120;52.336;21.182;2023-08-06T00:37:49;20.00;99.90
17066;DHT22;23120;52.336;21.182;2023-08-06T00:40:15;20.00;99.90
17066;DHT22;23120;52.336;21.182;2023-08-06T00:42:42;19.90;99.90
17066;DHT22;23120;52.336;21.182;2023-08-06T00:45:11;20.00;99.90
17066;DHT22;23120;52.336;21.182;2023-08-06T00:47:37;20.00;99.90
17066;DHT22;23120;52.336;21.182;2023-08-06T00:50:06;20.00;99.90
17066;DHT22;23120;52.336;21.182;2023-08-06T00:52:33;19.90;99.90
17066;DHT22;23120;52.336;21.182;2023-08-06T00:55:02;19.90;99.90
17066;DHT22;23120;52.336;21.182;2023-08-06T00:57:29;19.90;99.90
17066;DHT22;23120;52.336;21.182;2023-08-06T00:59:56;19.90;99.90
17066;DHT22;23120;52.336;21.182;2023-08-06T01:02:23;19.90;99.90
17066;DHT22;23120;52.336;21.182;2023-08-06T01:04:50;19.90;99.90
17066;DHT22;23120;52.336;21.182;2023-08-06T01:07:25;20.00;99.90
17066;DHT22;23120;52.336;21.182;2023-08-06T01:10:10;20.00;99.90
17066;DHT22;23120;52.336;21.182;2023-08-06T01:12:47;20.00;99.90
17066;DHT22;23120;52.336;21.182;2023-08-06T01:15:17;20.00;99.90
17066;DHT22;23120;52.336;21.182;2023-08-06T01:17:46;20.00;99.90
17066;DHT22;23120;52.336;21.182;2023-08-06T01:20:13;19.90;99.90
17066;DHT22;23120;52.336;21.182;2023-08-06T01:22:42;19.90;99.90
17066;DHT22;23120;52.336;21.182;2023-08-06T01:25:08;19.90;99.90
17066;DHT22;23120;52.336;21.182;2023-08-06T01:27:41;19.90;99.90
17066;DHT22;23120;52.336;21.182;2023-08-06T01:30:12;20.00;99.90
17066;DHT22;23120;52.336;21.182;2023-08-06T01:32:44;19.90;99.90
17066;DHT22;23120;52.336;21.182;2023-08-06T01:35:12;19.90;99.90
17066;DHT22;23120;52.336;21.182;2023-08-06T01:37:42;19.80;99.90
17066;DHT22;23120;52.336;21.182;2023-08-06T01:40:10;19.90;99.90
17066;DHT22;23120;52.336;21.182;2023-08-06T01:42:37;19.90;99.90
17066;DHT22;23120;52.336;21.182;2023-08-06T01:45:05;19.80;99.90
17066;DHT22;23120;52.336;21.182;2023-08-06T01:47:32;19.80;99.90
17066;DHT22;23120;52.336;21.182;2023-08-06T01:49:59;19.80;99.90
17066;DHT22;23120;52.336;21.182;2023-08-06T01:52:26;19.80;99.90
17066;DHT22;23120;52.336;21.182;2023-08-06T01:54:54;19.80;99.90
17066;DHT22;23120;52.336;21.182;2023-08-06T01:57:21;19.80;99.90
17066;DHT22;23120;52.336;21.182;2023-08-06T01:59:48;19.80;99.90
17066;DHT22;23120;52.336;21.182;2023-08-06T02:02:15;19.80;99.90
17066;DHT22;23120;52.336;21.182;2023-08-06T02:04:41;19.70;99.90
17066;DHT22;23120;52.336;21.182;2023-08-06T02:07:08;19.70;99.90
17066;DHT22;23120;52.336;21.182;2023-08-06T02:09:35;19.70;99.90
17066;DHT22;23120;52.336;21.182;2023-08-06T02:12:04;19.60;99.90
17066;DHT22;23120;52.336;21.182;2023-08-06T02:14:31;19.60;99.90
17066;DHT22;23120;52.336;21.182;2023-08-06T02:16:59;19.70;99.90
17066;DHT22;23120;52.336;21.182;2023-08-06T02:19:26;19.70;99.90
17066;DHT22;23120;52.336;21.182;2023-08-06T02:21:52;19.70;99.90
17066;DHT22;23120;52.336;21.182;2023-08-06T02:24:21;19.70;99.90
17066;DHT22;23120;52.336;21.182;2023-08-06T02:26:48;19.70;99.90
17066;DHT22;23120;52.336;21.182;2023-08-06T02:29:18;19.70;99.90
17066;DHT22;23120;52.336;21.182;2023-08-06T02:31:45;19.70;99.90
17066;DHT22;23120;52.336;21.182;2023-08-06T02:34:11;19.70;99.90
17066;DHT22;23120;52.336;21.182;2023-08-06T02:36:38;19.70;99.90
17066;DHT22;23120;52.336;21.182;2023-08-06T02:39:06;19.70;99.90
17066;DHT22;23120;52.336;21.182;2023-08-06T02:41:33;19.70;99.90
17066;DHT22;23120;52.336;21.182;2023-08-06T02:43:59;19.70;99.90
17066;DHT22;23120;52.336;21.182;2023-08-06T02:46:28;19.70;99.90
17066;DHT22;23120;52.336;21.182;2023-08-06T02:48:57;19.70;99.90
17066;DHT22;23120;52.336;21.182;2023-08-06T02:51:23;19.70;99.90
17066;DHT22;23120;52.336;21.182;2023-08-06T02:53:50;19.70;99.90
17066;DHT22;23120;52.336;21.182;2023-08-06T02:56:19;19.80;99.90
17066;DHT22;23120;52.336;21.182;2023-08-06T02:58:59;19.70;99.90
17066;DHT22;23120;52.336;21.182;2023-08-06T03:01:47;19.70;99.90
17066;DHT22;23120;52.336;21.182;2023-08-06T03:04:20;19.80;99.90
17066;DHT22;23120;52.336;21.182;2023-08-06T03:06:49;19.80;99.90
17066;DHT22;23120;52.336;21.182;2023-08-06T03:09:16;19.70;99.90
17066;DHT22;23120;52.336;21.182;2023-08-06T03:11:43;19.70;99.90
17066;DHT22;23120;52.336;21.182;2023-08-06T03:14:13;19.70;99.90
17066;DHT22;23120;52.336;21.182;2023-08-06T03:16:41;19.70;99.90
17066;DHT22;23120;52.336;21.182;2023-08-06T03:19:09;19.70;99.90
17066;DHT22;23120;52.336;21.182;2023-08-06T03:21:36;19.70;99.90
17066;DHT22;23120;52.336;21.182;2023-08-06T03:24:04;19.70;99.90
17066;DHT22;23120;52.336;21.182;2023-08-06T03:26:33;19.70;99.90
17066;DHT22;23120;52.336;21.182;2023-08-06T03:29:01;19.70;99.90
17066;DHT22;23120;52.336;21.182;2023-08-06T03:31:30;19.70;99.90
17066;DHT22;23120;52.336;21.182;2023-08-06T03:33:59;19.80;99.90
17066;DHT22;23120;52.336;21.182;2023-08-06T03:36:28;19.80;99.90
17066;DHT22;23120;52.336;21.182;2023-08-06T03:38:55;19.80;99.90
17066;DHT22;23120;52.336;21.182;2023-08-06T03:41:22;19.80;99.90
17066;DHT22;23120;52.336;21.182;2023-08-06T03:43:49;19.80;99.90
17066;DHT22;23120;52.336;21.182;2023-08-06T03:46:22;19.80;99.90
17066;DHT22;23120;52.336;21.182;2023-08-06T03:48:49;19.80;99.90
17066;DHT22;23120;52.336;21.182;2023-08-06T03:51:16;19.90;99.90
17066;DHT22;23120;52.336;21.182;2023-08-06T03:53:46;19.90;99.90
17066;DHT22;23120;52.336;21.182;2023-08-06T03:56:14;19.90;99.90
17066;DHT22;23120;52.336;21.182;2023-08-06T03:58:41;19.90;99.90
17066;DHT22;23120;52.336;21.182;2023-08-06T04:01:08;19.90;99.90
17066;DHT22;23120;52.336;21.182;2023-08-06T04:03:41;19.90;99.90
17066;DHT22;23120;52.336;21.182;2023-08-06T04:06:08;20.00;99.90
17066;DHT22;23120;52.336;21.182;2023-08-06T04:08:36;19.90;99.90
17066;DHT22;23120;52.336;21.182;2023-08-06T04:11:04;20.00;99.90
17066;DHT22;23120;52.336;21.182;2023-08-06T04:13:31;19.90;99.90
17066;DHT22;23120;52.336;21.182;2023-08-06T04:16:01;20.00;99.90
17066;DHT22;23120;52.336;21.182;2023-08-06T04:18:28;20.10;99.90
17066;DHT22;23120;52.336;21.182;2023-08-06T04:20:55;20.10;99.90
17066;DHT22;23120;52.336;21.182;2023-08-06T04:23:23;20.00;99.90
17066;DHT22;23120;52.336;21.182;2023-08-06T04:25:50;20.10;99.90
17066;DHT22;23120;52.336;21.182;2023-08-06T04:28:19;20.10;99.90
17066;DHT22;23120;52.336;21.182;2023-08-06T04:30:46;20.20;99.90
17066;DHT22;23120;52.336;21.182;2023-08-06T04:33:13;20.20;99.90
17066;DHT22;23120;52.336;21.182;2023-08-06T04:35:40;20.20;99.90
17066;DHT22;23120;52.336;21.182;2023-08-06T04:38:07;20.20;99.90
17066;DHT22;23120;52.336;21.182;2023-08-06T04:40:34;20.30;99.90
17066;DHT22;23120;52.336;21.182;2023-08-06T04:43:01;20.30;99.90
17066;DHT22;23120;52.336;21.182;2023-08-06T04:45:32;20.40;99.90
17066;DHT22;23120;52.336;21.182;2023-08-06T04:47:59;20.40;99.90
17066;DHT22;23120;52.336;21.182;2023-08-06T04:50:25;20.50;99.90
17066;DHT22;23120;52.336;21.182;2023-08-06T04:52:52;20.50;99.90
17066;DHT22;23120;52.336;21.182;2023-08-06T04:55:20;20.50;99.90
17066;DHT22;23120;52.336;21.182;2023-08-06T04:57:46;20.60;99.90
17066;DHT22;23120;52.336;21.182;2023-08-06T05:00:13;20.70;99.90
17066;DHT22;23120;52.336;21.182;2023-08-06T05:02:41;20.70;99.90
17066;DHT22;23120;52.336;21.182;2023-08-06T05:05:08;20.70;99.90
17066;DHT22;23120;52.336;21.182;2023-08-06T05:07:35;20.80;99.90
17066;DHT22;23120;52.336;21.182;2023-08-06T05:10:02;20.80;99.90
17066;DHT22;23120;52.336;21.182;2023-08-06T05:12:30;20.90;99.90
17066;DHT22;23120;52.336;21.182;2023-08-06T05:14:56;20.90;99.90
17066;DHT22;23120;52.336;21.182;2023-08-06T05:17:23;21.00;99.90
17066;DHT22;23120;52.336;21.182;2023-08-06T05:19:51;21.00;99.90
17066;DHT22;23120;52.336;21.182;2023-08-06T05:22:18;21.10;99.90
17066;DHT22;23120;52.336;21.182;2023-08-06T05:24:45;21.10;99.90
17066;DHT22;23120;52.336;21.182;2023-08-06T05:27:11;21.10;99.90
17066;DHT22;23120;52.336;21.182;2023-08-06T05:29:38;21.30;99.90
17066;DHT22;23120;52.336;21.182;2023-08-06T05:32:05;21.40;99.90
17066;DHT22;23120;52.336;21.182;2023-08-06T05:34:32;21.50;99.90
17066;DHT22;23120;52.336;21.182;2023-08-06T05:37:00;21.60;99.90
17066;DHT22;23120;52.336;21.182;2023-08-06T05:39:27;21.70;99.90
17066;DHT22;23120;52.336;21.182;2023-08-06T05:41:54;21.70;99.90
17066;DHT22;23120;52.336;21.182;2023-08-06T05:44:21;21.80;99.90
17066;DHT22;23120;52.336;21.182;2023-08-06T05:46:49;21.90;99.90
17066;DHT22;23120;52.336;21.182;2023-08-06T05:49:16;22.00;99.90
17066;DHT22;23120;52.336;21.182;2023-08-06T05:51:44;22.00;99.90
17066;DHT22;23120;52.336;21.182;2023-08-06T05:54:12;22.10;99.90
17066;DHT22;23120;52.336;21.182;2023-08-06T05:56:39;22.10;99.90
17066;DHT22;23120;52.336;21.182;2023-08-06T05:59:05;22.10;99.90
17066;DHT22;23120;52.336;21.182;2023-08-06T06:01:32;22.20;99.90
17066;DHT22;23120;52.336;21.182;2023-08-06T06:03:59;22.20;99.90
17066;DHT22;23120;52.336;21.182;2023-08-06T06:06:26;22.20;99.90
17066;DHT22;23120;52.336;21.182;2023-08-06T06:08:53;22.30;99.90
17066;DHT22;23120;52.336;21.182;2023-08-06T06:11:21;22.30;99.90
17066;DHT22;23120;52.336;21.182;2023-08-06T06:13:49;22.50;99.90
17066;DHT22;23120;52.336;21.182;2023-08-06T06:16:16;22.50;99.90
17066;DHT22;23120;52.336;21.182;2023-08-06T06:18:43;22.60;99.90
17066;DHT22;23120;52.336;21.182;2023-08-06T06:21:09;22.60;99.90
17066;DHT22;23120;52.336;21.182;2023-08-06T06:23:36;22.70;99.90
17066;DHT22;23120;52.336;21.182;2023-08-06T06:26:03;22.80;99.90
17066;DHT22;23120;52.336;21.182;2023-08-06T06:28:31;22.80;99.90
17066;DHT22;23120;52.336;21.182;2023-08-06T06:31:00;22.90;99.90
17066;DHT22;23120;52.336;21.182;2023-08-06T06:33:27;22.90;99.90
17066;DHT22;23120;52.336;21.182;2023-08-06T06:35:54;23.00;99.90
17066;DHT22;23120;52.336;21.182;2023-08-06T06:38:21;23.00;99.90
17066;DHT22;23120;52.336;21.182;2023-08-06T06:40:53;23.10;99.90
17066;DHT22;23120;52.336;21.182;2023-08-06T06:43:20;23.30;99.90
17066;DHT22;23120;52.336;21.182;2023-08-06T06:45:52;23.30;99.90
17066;DHT22;23120;52.336;21.182;2023-08-06T06:48:19;23.40;99.90
17066;DHT22;23120;52.336;21.182;2023-08-06T06:50:47;23.50;99.90
17066;DHT22;23120;52.336;21.182;2023-08-06T06:53:14;23.60;99.90
17066;DHT22;23120;52.336;21.182;2023-08-06T06:55:41;23.70;99.90
17066;DHT22;23120;52.336;21.182;2023-08-06T06:58:07;23.80;99.90
17066;DHT22;23120;52.336;21.182;2023-08-06T07:00:35;23.90;99.90
17066;DHT22;23120;52.336;21.182;2023-08-06T07:03:04;24.00;99.90
17066;DHT22;23120;52.336;21.182;2023-08-06T07:05:30;24.10;99.90
17066;DHT22;23120;52.336;21.182;2023-08-06T07:07:57;24.10;99.90
17066;DHT22;23120;52.336;21.182;2023-08-06T07:10:25;24.20;99.90
17066;DHT22;23120;52.336;21.182;2023-08-06T07:12:51;24.30;99.90
17066;DHT22;23120;52.336;21.182;2023-08-06T07:15:18;24.40;99.90
17066;DHT22;23120;52.336;21.182;2023-08-06T07:17:45;24.60;99.90
17066;DHT22;23120;52.336;21.182;2023-08-06T07:20:13;24.70;99.90
17066;DHT22;23120;52.336;21.182;2023-08-06T07:22:40;24.70;99.90
17066;DHT22;23120;52.336;21.182;2023-08-06T07:25:07;24.90;99.90
17066;DHT22;23120;52.336;21.182;2023-08-06T07:27:34;25.00;99.90
17066;DHT22;23120;52.336;21.182;2023-08-06T07:30:01;25.10;99.90
17066;DHT22;23120;52.336;21.182;2023-08-06T07:32:29;25.20;99.90
17066;DHT22;23120;52.336;21.182;2023-08-06T07:34:56;25.30;99.90
17066;DHT22;23120;52.336;21.182;2023-08-06T07:37:27;25.40;99.90
17066;DHT22;23120;52.336;21.182;2023-08-06T07:39:54;25.50;99.90
17066;DHT22;23120;52.336;21.182;2023-08-06T07:42:21;25.60;99.90
17066;DHT22;23120;52.336;21.182;2023-08-06T07:44:51;25.60;99.90
17066;DHT22;23120;52.336;21.182;2023-08-06T07:47:18;25.70;99.90
17066;DHT22;23120;52.336;21.182;2023-08-06T07:49:45;25.80;99.90
17066;DHT22;23120;52.336;21.182;2023-08-06T07:52:12;25.90;99.90
17066;DHT22;23120;52.336;21.182;2023-08-06T07:54:40;26.00;99.90
17066;DHT22;23120;52.336;21.182;2023-08-06T07:57:08;26.10;99.90
17066;DHT22;23120;52.336;21.182;2023-08-06T07:59:35;26.20;99.90
17066;DHT22;23120;52.336;21.182;2023-08-06T08:02:02;26.30;99.90
17066;DHT22;23120;52.336;21.182;2023-08-06T08:04:29;26.40;99.90
17066;DHT22;23120;52.336;21.182;2023-08-06T08:06:56;26.50;99.90
17066;DHT22;23120;52.336;21.182;2023-08-06T08:09:23;26.60;99.90
17066;DHT22;23120;52.336;21.182;2023-08-06T08:11:53;26.70;99.90
17066;DHT22;23120;52.336;21.182;2023-08-06T08:14:20;26.80;99.90
17066;DHT22;23120;52.336;21.182;2023-08-06T08:16:49;27.00;99.90
17066;DHT22;23120;52.336;21.182;2023-08-06T08:19:17;27.10;99.90
17066;DHT22;23120;52.336;21.182;2023-08-06T08:21:44;27.20;99.90
17066;DHT22;23120;52.336;21.182;2023-08-06T08:24:10;27.30;99.90
17066;DHT22;23120;52.336;21.182;2023-08-06T08:26:37;27.40;99.90
17066;DHT22;23120;52.336;21.182;2023-08-06T08:29:05;27.50;99.90
17066;DHT22;23120;52.336;21.182;2023-08-06T08:31:32;27.70;99.90
17066;DHT22;23120;52.336;21.182;2023-08-06T08:34:04;27.70;99.90
17066;DHT22;23120;52.336;21.182;2023-08-06T08:36:31;27.80;99.90
17066;DHT22;23120;52.336;21.182;2023-08-06T08:38:58;28.00;99.90
17066;DHT22;23120;52.336;21.182;2023-08-06T08:41:25;28.10;99.90
17066;DHT22;23120;52.336;21.182;2023-08-06T08:43:54;28.10;99.90
17066;DHT22;23120;52.336;21.182;2023-08-06T08:46:23;28.10;99.60
17066;DHT22;23120;52.336;21.182;2023-08-06T08:48:51;28.20;99.70
17066;DHT22;23120;52.336;21.182;2023-08-06T08:51:18;28.30;99.20
17066;DHT22;23120;52.336;21.182;2023-08-06T08:53:47;28.40;98.90
17066;DHT22;23120;52.336;21.182;2023-08-06T08:56:16;28.50;97.60
17066;DHT22;23120;52.336;21.182;2023-08-06T08:58:43;28.50;99.20
17066;DHT22;23120;52.336;21.182;2023-08-06T09:01:11;28.60;98.40
17066;DHT22;23120;52.336;21.182;2023-08-06T09:03:39;28.60;98.90
17066;DHT22;23120;52.336;21.182;2023-08-06T09:06:07;28.60;97.80
17066;DHT22;23120;52.336;21.182;2023-08-06T09:08:41;28.70;98.20
17066;DHT22;23120;52.336;21.182;2023-08-06T09:11:09;28.70;98.70
17066;DHT22;23120;52.336;21.182;2023-08-06T09:13:37;28.80;97.90
17066;DHT22;23120;52.336;21.182;2023-08-06T09:16:04;28.80;97.90
17066;DHT22;23120;52.336;21.182;2023-08-06T09:18:31;28.90;97.90
17066;DHT22;23120;52.336;21.182;2023-08-06T09:20:59;29.00;96.90
17066;DHT22;23120;52.336;21.182;2023-08-06T09:23:29;29.10;97.50
17066;DHT22;23120;52.336;21.182;2023-08-06T09:25:57;29.20;97.10
17066;DHT22;23120;52.336;21.182;2023-08-06T09:28:24;29.20;97.60
17066;DHT22;23120;52.336;21.182;2023-08-06T09:30:52;29.40;97.10
17066;DHT22;23120;52.336;21.182;2023-08-06T09:33:22;29.50;98.00
17066;DHT22;23120;52.336;21.182;2023-08-06T09:35:49;29.60;97.80
17066;DHT22;23120;52.336;21.182;2023-08-06T09:38:17;29.80;96.80
17066;DHT22;23120;52.336;21.182;2023-08-06T09:40:44;29.70;96.60
17066;DHT22;23120;52.336;21.182;2023-08-06T09:43:14;29.70;95.30
17066;DHT22;23120;52.336;21.182;2023-08-06T09:45:41;29.90;95.10
17066;DHT22;23120;52.336;21.182;2023-08-06T09:48:09;30.00;95.10
17066;DHT22;23120;52.336;21.182;2023-08-06T09:50:40;30.00;95.10
17066;DHT22;23120;52.336;21.182;2023-08-06T09:53:08;30.10;94.00
17066;DHT22;23120;52.336;21.182;2023-08-06T09:55:36;30.30;94.50
17066;DHT22;23120;52.336;21.182;2023-08-06T09:58:03;30.40;94.70
17066;DHT22;23120;52.336;21.182;2023-08-06T10:00:31;30.40;94.50
17066;DHT22;23120;52.336;21.182;2023-08-06T10:03:00;30.50;94.60
17066;DHT22;23120;52.336;21.182;2023-08-06T10:05:27;30.60;93.10
17066;DHT22;23120;52.336;21.182;2023-08-06T10:07:55;30.70;91.80
17066;DHT22;23120;52.336;21.182;2023-08-06T10:10:24;30.80;92.10
17066;DHT22;23120;52.336;21.182;2023-08-06T10:12:55;30.80;91.80
17066;DHT22;23120;52.336;21.182;2023-08-06T10:15:26;30.80;91.00
17066;DHT22;23120;52.336;21.182;2023-08-06T10:17:56;30.70;91.10
17066;DHT22;23120;52.336;21.182;2023-08-06T10:20:26;30.70;92.10
17066;DHT22;23120;52.336;21.182;2023-08-06T10:23:02;30.90;91.50
17066;DHT22;23120;52.336;21.182;2023-08-06T10:25:33;30.90;93.20
17066;DHT22;23120;52.336;21.182;2023-08-06T10:28:07;31.10;92.30
17066;DHT22;23120;52.336;21.182;2023-08-06T10:30:41;31.20;91.40
17066;DHT22;23120;52.336;21.182;2023-08-06T10:33:13;31.30;88.80
17066;DHT22;23120;52.336;21.182;2023-08-06T10:35:46;31.30;87.90
17066;DHT22;23120;52.336;21.182;2023-08-06T10:38:15;31.40;89.80
17066;DHT22;23120;52.336;21.182;2023-08-06T10:40:49;31.60;86.40
17066;DHT22;23120;52.336;21.182;2023-08-06T10:43:27;31.60;85.70
17066;DHT22;23120;52.336;21.182;2023-08-06T10:45:54;31.50;88.30
17066;DHT22;23120;52.336;21.182;2023-08-06T10:48:29;31.50;86.40
17066;DHT22;23120;52.336;21.182;2023-08-06T10:50:57;31.10;87.90
17066;DHT22;23120;52.336;21.182;2023-08-06T10:53:23;31.20;86.10
17066;DHT22;23120;52.336;21.182;2023-08-06T10:55:50;31.10;86.00
17066;DHT22;23120;52.336;21.182;2023-08-06T10:58:17;31.20;84.90
17066;DHT22;23120;52.336;21.182;2023-08-06T11:00:45;31.30;83.40
17066;DHT22;23120;52.336;21.182;2023-08-06T11:03:12;31.50;82.80
17066;DHT22;23120;52.336;21.182;2023-08-06T11:05:40;31.60;87.20
17066;DHT22;23120;52.336;21.182;2023-08-06T11:08:07;31.80;85.30
17066;DHT22;23120;52.336;21.182;2023-08-06T11:10:35;31.80;89.50
17066;DHT22;23120;52.336;21.182;2023-08-06T11:13:02;32.00;88.60
17066;DHT22;23120;52.336;21.182;2023-08-06T11:15:30;32.00;86.50
17066;DHT22;23120;52.336;21.182;2023-08-06T11:17:58;32.00;87.70
17066;DHT22;23120;52.336;21.182;2023-08-06T11:20:25;31.80;87.90
17066;DHT22;23120;52.336;21.182;2023-08-06T11:22:52;31.80;84.90
17066;DHT22;23120;52.336;21.182;2023-08-06T11:25:20;31.90;85.60
17066;DHT22;23120;52.336;21.182;2023-08-06T11:27:47;31.90;83.10
17066;DHT22;23120;52.336;21.182;2023-08-06T11:30:14;32.00;83.20
17066;DHT22;23120;52.336;21.182;2023-08-06T11:32:47;32.10;80.50
17066;DHT22;23120;52.336;21.182;2023-08-06T11:35:16;32.10;79.20
17066;DHT22;23120;52.336;21.182;2023-08-06T11:37:44;32.40;79.80
17066;DHT22;23120;52.336;21.182;2023-08-06T11:40:11;32.60;75.60
17066;DHT22;23120;52.336;21.182;2023-08-06T11:42:38;32.80;75.80
17066;DHT22;23120;52.336;21.182;2023-08-06T11:45:06;32.90;78.30
17066;DHT22;23120;52.336;21.182;2023-08-06T11:47:38;32.80;75.30
17066;DHT22;23120;52.336;21.182;2023-08-06T11:50:06;32.90;75.90
17066;DHT22;23120;52.336;21.182;2023-08-06T11:52:34;33.00;74.60
17066;DHT22;23120;52.336;21.182;2023-08-06T11:55:07;33.10;81.30
17066;DHT22;23120;52.336;21.182;2023-08-06T11:57:36;33.00;82.10
17066;DHT22;23120;52.336;21.182;2023-08-06T12:00:06;33.00;79.30
17066;DHT22;23120;52.336;21.182;2023-08-06T12:02:45;32.90;81.30
17066;DHT22;23120;52.336;21.182;2023-08-06T12:05:13;32.90;82.20
17066;DHT22;23120;52.336;21.182;2023-08-06T12:07:43;33.00;79.80
17066;DHT22;23120;52.336;21.182;2023-08-06T12:10:11;33.00;81.50
17066;DHT22;23120;52.336;21.182;2023-08-06T12:12:38;33.00;78.80
17066;DHT22;23120;52.336;21.182;2023-08-06T12:15:06;32.90;82.10
17066;DHT22;23120;52.336;21.182;2023-08-06T12:17:34;32.90;78.90
17066;DHT22;23120;52.336;21.182;2023-08-06T12:20:01;32.80;77.40
17066;DHT22;23120;52.336;21.182;2023-08-06T12:22:30;32.70;76.30
17066;DHT22;23120;52.336;21.182;2023-08-06T12:25:02;32.50;77.10
17066;DHT22;23120;52.336;21.182;2023-08-06T12:27:29;32.50;74.20
17066;DHT22;23120;52.336;21.182;2023-08-06T12:29:55;32.40;74.10
17066;DHT22;23120;52.336;21.182;2023-08-06T12:32:22;32.10;71.40
17066;DHT22;23120;52.336;21.182;2023-08-06T12:34:49;32.00;75.20
17066;DHT22;23120;52.336;21.182;2023-08-06T12:37:19;31.90;76.40
17066;DHT22;23120;52.336;21.182;2023-08-06T12:39:46;31.80;75.80
17066;DHT22;23120;52.336;21.182;2023-08-06T12:42:14;31.60;73.50
17066;DHT22;23120;52.336;21.182;2023-08-06T12:44:41;31.50;76.60
17066;DHT22;23120;52.336;21.182;2023-08-06T12:47:09;31.50;77.40
17066;DHT22;23120;52.336;21.182;2023-08-06T12:49:36;31.40;75.20
17066;DHT22;23120;52.336;21.182;2023-08-06T12:52:03;31.30;76.90
17066;DHT22;23120;52.336;21.182;2023-08-06T12:54:34;31.10;75.20
17066;DHT22;23120;52.336;21.182;2023-08-06T12:57:03;31.00;77.50
17066;DHT22;23120;52.336;21.182;2023-08-06T12:59:33;30.90;78.50
17066;DHT22;23120;52.336;21.182;2023-08-06T13:02:02;30.90;79.90
17066;DHT22;23120;52.336;21.182;2023-08-06T13:04:29;30.80;80.00
17066;DHT22;23120;52.336;21.182;2023-08-06T13:06:56;30.80;81.20
17066;DHT22;23120;52.336;21.182;2023-08-06T13:15:54;30.50;80.30
17066;DHT22;23120;52.336;21.182;2023-08-06T13:18:46;30.40;81.00
17066;DHT22;23120;52.336;21.182;2023-08-06T13:36:41;29.60;85.00
17066;DHT22;23120;52.336;21.182;2023-08-06T13:39:12;29.60;87.00
17066;DHT22;23120;52.336;21.182;2023-08-06T14:09:59;30.90;85.20
17066;DHT22;23120;52.336;21.182;2023-08-06T14:19:44;31.50;82.30
17066;DHT22;23120;52.336;21.182;2023-08-06T14:22:11;31.50;81.40
17066;DHT22;23120;52.336;21.182;2023-08-06T14:24:38;31.50;79.50
17066;DHT22;23120;52.336;21.182;2023-08-06T14:27:06;31.50;79.70
17066;DHT22;23120;52.336;21.182;2023-08-06T14:29:33;31.60;81.20
17066;DHT22;23120;52.336;21.182;2023-08-06T14:32:04;31.80;81.30
17066;DHT22;23120;52.336;21.182;2023-08-06T14:34:31;31.80;81.10
17066;DHT22;23120;52.336;21.182;2023-08-06T14:36:58;31.80;81.80
17066;DHT22;23120;52.336;21.182;2023-08-06T14:39:25;31.70;78.70
17066;DHT22;23120;52.336;21.182;2023-08-06T14:41:51;31.40;78.80
17066;DHT22;23120;52.336;21.182;2023-08-06T14:44:20;31.50;80.30
17066;DHT22;23120;52.336;21.182;2023-08-06T14:46:46;31.50;80.10
17066;DHT22;23120;52.336;21.182;2023-08-06T14:49:13;31.50;80.70
17066;DHT22;23120;52.336;21.182;2023-08-06T14:51:40;31.20;79.80
17066;DHT22;23120;52.336;21.182;2023-08-06T14:54:07;31.10;79.70
17066;DHT22;23120;52.336;21.182;2023-08-06T14:56:33;31.00;80.50
17066;DHT22;23120;52.336;21.182;2023-08-06T14:59:01;30.90;79.80
17066;DHT22;23120;52.336;21.182;2023-08-06T15:01:29;30.90;81.90
17066;DHT22;23120;52.336;21.182;2023-08-06T15:03:56;31.00;82.30
17066;DHT22;23120;52.336;21.182;2023-08-06T15:06:23;30.90;80.00
17066;DHT22;23120;52.336;21.182;2023-08-06T15:08:50;31.00;80.00
17066;DHT22;23120;52.336;21.182;2023-08-06T15:11:17;30.90;80.50
17066;DHT22;23120;52.336;21.182;2023-08-06T15:13:44;31.00;81.80
17066;DHT22;23120;52.336;21.182;2023-08-06T15:16:11;30.90;79.90
17066;DHT22;23120;52.336;21.182;2023-08-06T15:18:39;30.90;79.50
17066;DHT22;23120;52.336;21.182;2023-08-06T15:21:06;30.80;77.50
17066;DHT22;23120;52.336;21.182;2023-08-06T15:23:33;30.80;77.50
17066;DHT22;23120;52.336;21.182;2023-08-06T15:25:59;30.70;77.30
17066;DHT22;23120;52.336;21.182;2023-08-06T15:28:26;30.70;78.50
17066;DHT22;23120;52.336;21.182;2023-08-06T15:30:54;30.50;79.20
17066;DHT22;23120;52.336;21.182;2023-08-06T15:33:22;30.40;78.70
17066;DHT22;23120;52.336;21.182;2023-08-06T15:35:50;30.40;79.50
17066;DHT22;23120;52.336;21.182;2023-08-06T15:38:17;30.20;80.10
17066;DHT22;23120;52.336;21.182;2023-08-06T15:40:43;30.20;80.30
17066;DHT22;23120;52.336;21.182;2023-08-06T15:43:12;30.10;80.30
17066;DHT22;23120;52.336;21.182;2023-08-06T15:45:39;30.00;80.80
17066;DHT22;23120;52.336;21.182;2023-08-06T15:48:06;29.90;80.70
17066;DHT22;23120;52.336;21.182;2023-08-06T15:50:36;30.00;82.00
17066;DHT22;23120;52.336;21.182;2023-08-06T15:53:04;29.80;82.30
17066;DHT22;23120;52.336;21.182;2023-08-06T15:55:31;29.70;81.60
17066;DHT22;23120;52.336;21.182;2023-08-06T15:57:59;29.60;82.80
17066;DHT22;23120;52.336;21.182;2023-08-06T16:00:25;29.50;84.50
17066;DHT22;23120;52.336;21.182;2023-08-06T16:02:54;29.40;85.30
17066;DHT22;23120;52.336;21.182;2023-08-06T16:05:21;29.20;85.60
17066;DHT22;23120;52.336;21.182;2023-08-06T16:07:49;29.20;85.80
17066;DHT22;23120;52.336;21.182;2023-08-06T16:10:17;29.00;86.40
17066;DHT22;23120;52.336;21.182;2023-08-06T16:12:44;29.00;87.10
17066;DHT22;23120;52.336;21.182;2023-08-06T16:15:13;28.80;87.90
17066;DHT22;23120;52.336;21.182;2023-08-06T16:17:47;28.70;87.10